sensor_id;sensor_type;location;lat;lon;timestamp;pressure;altitude;pressure_sealevel;temperature;humidity
77149;BME280;66122;47.130;16.844;2023-02-02T00:01:07;99718.38;;;1.84;80.26
77149;BME280;66122;47.130;16.844;2023-02-02T00:11:10;99697.59;;;1.78;79.79
77149;BME280;66122;47.130;16.844;2023-02-02T00:21:13;99688.03;;;1.78;79.28
77149;BME280;66122;47.130;16.844;2023-02-02T00:31:15;99681.41;;;2.02;78.23
77149;BME280;66122;47.130;16.844;2023-02-02T00:41:18;99689.88;;;2.15;78.04
77149;BME280;66122;47.130;16.844;2023-02-02T00:51:21;99665.50;;;2.53;76.29
77149;BME280;66122;47.130;16.844;2023-02-02T01:01:23;99684.06;;;2.79;75.44
77149;BME280;66122;47.130;16.844;2023-02-02T01:11:26;99683.31;;;2.74;75.39
77149;BME280;66122;47.130;16.844;2023-02-02T01:21:29;99685.28;;;2.64;75.14
77149;BME280;66122;47.130;16.844;2023-02-02T01:31:32;99689.31;;;2.41;75.81
77149;BME280;66122;47.130;16.844;2023-02-02T01:41:35;99699.53;;;2.11;78.15
77149;BME280;66122;47.130;16.844;2023-02-02T01:52:04;99736.06;;;1.70;80.96
77149;BME280;66122;47.130;16.844;2023-02-02T02:02:07;99851.72;;;1.78;82.68
77149;BME280;66122;47.130;16.844;2023-02-02T02:12:14;99836.84;;;1.81;94.76
77149;BME280;66122;47.130;16.844;2023-02-02T02:22:19;99841.00;;;1.42;100.00
77149;BME280;66122;47.130;16.844;2023-02-02T02:32:58;99845.69;;;1.19;100.00
77149;BME280;66122;47.130;16.844;2023-02-02T02:43:18;99842.50;;;1.00;100.00
77149;BME280;66122;47.130;16.844;2023-02-02T02:53:23;99853.66;;;1.10;100.00
77149;BME280;66122;47.130;16.844;2023-02-02T03:03:32;99883.22;;;1.09;100.00
77149;BME280;66122;47.130;16.844;2023-02-02T03:13:39;99862.09;;;0.64;100.00
77149;BME280;66122;47.130;16.844;2023-02-02T03:23:42;99850.81;;;0.62;100.00
77149;BME280;66122;47.130;16.844;2023-02-02T03:33:45;99854.97;;;0.77;100.00
77149;BME280;66122;47.130;16.844;2023-02-02T03:43:48;99854.88;;;0.85;100.00
77149;BME280;66122;47.130;16.844;2023-02-02T03:53:50;99876.53;;;0.91;100.00
77149;BME280;66122;47.130;16.844;2023-02-02T04:03:53;99849.41;;;1.01;100.00
77149;BME280;66122;47.130;16.844;2023-02-02T04:13:56;99836.78;;;1.32;100.00
77149;BME280;66122;47.130;16.844;2023-02-02T04:23:58;99816.50;;;1.49;100.00
77149;BME280;66122;47.130;16.844;2023-02-02T04:34:02;99815.88;;;1.86;100.00
77149;BME280;66122;47.130;16.844;2023-02-02T04:44:04;99813.41;;;1.78;100.00
77149;BME280;66122;47.130;16.844;2023-02-02T04:54:08;99801.22;;;1.77;100.00
77149;BME280;66122;47.130;16.844;2023-02-02T05:04:10;99804.75;;;1.75;100.00
77149;BME280;66122;47.130;16.844;2023-02-02T05:14:13;99835.28;;;1.73;100.00
77149;BME280;66122;47.130;16.844;2023-02-02T05:24:19;99838.03;;;1.64;100.00
77149;BME280;66122;47.130;16.844;2023-02-02T05:34:22;99867.53;;;1.69;100.00
77149;BME280;66122;47.130;16.844;2023-02-02T05:44:24;99868.75;;;1.46;100.00
77149;BME280;66122;47.130;16.844;2023-02-02T05:54:27;99863.66;;;1.37;100.00
77149;BME280;66122;47.130;16.844;2023-02-02T06:04:29;99866.44;;;1.30;100.00
77149;BME280;66122;47.130;16.844;2023-02-02T06:14:32;99901.13;;;1.36;100.00
77149;BME280;66122;47.130;16.844;2023-02-02T06:24:35;99915.63;;;1.55;100.00
77149;BME280;66122;47.130;16.844;2023-02-02T06:34:38;99875.09;;;1.87;100.00
77149;BME280;66122;47.130;16.844;2023-02-02T06:44:40;99918.69;;;1.82;100.00
77149;BME280;66122;47.130;16.844;2023-02-02T06:54:43;99904.84;;;1.77;99.55
77149;BME280;66122;47.130;16.844;2023-02-02T07:04:45;99948.06;;;2.47;89.75
77149;BME280;66122;47.130;16.844;2023-02-02T07:14:48;99959.59;;;2.37;90.28
77149;BME280;66122;47.130;16.844;2023-02-02T07:24:50;99971.66;;;2.44;89.07
77149;BME280;66122;47.130;16.844;2023-02-02T07:34:53;99975.94;;;2.49;88.09
77149;BME280;66122;47.130;16.844;2023-02-02T07:44:56;99979.34;;;2.53;87.65
77149;BME280;66122;47.130;16.844;2023-02-02T07:55:23;99979.66;;;2.82;85.51
77149;BME280;66122;47.130;16.844;2023-02-02T08:05:26;99960.81;;;3.09;84.30
77149;BME280;66122;47.130;16.844;2023-02-02T08:15:29;99980.13;;;3.45;83.63
77149;BME280;66122;47.130;16.844;2023-02-02T08:25:32;100000.69;;;3.62;83.28
77149;BME280;66122;47.130;16.844;2023-02-02T08:35:45;100001.00;;;3.88;82.77
77149;BME280;66122;47.130;16.844;2023-02-02T08:45:57;99996.09;;;4.80;80.80
77149;BME280;66122;47.130;16.844;2023-02-02T08:56:18;100017.72;;;5.51;79.36
77149;BME280;66122;47.130;16.844;2023-02-02T09:06:27;100017.03;;;5.14;78.06
77149;BME280;66122;47.130;16.844;2023-02-02T09:16:33;100035.03;;;4.96;79.57
77149;BME280;66122;47.130;16.844;2023-02-02T09:26:36;100010.31;;;5.03;78.82
77149;BME280;66122;47.130;16.844;2023-02-02T09:36:42;100019.84;;;4.75;78.85
77149;BME280;66122;47.130;16.844;2023-02-02T09:57:21;100024.38;;;4.68;79.23
77149;BME280;66122;47.130;16.844;2023-02-02T10:07:47;100040.38;;;4.92;76.36
77149;BME280;66122;47.130;16.844;2023-02-02T10:28:06;100033.06;;;6.23;72.02
77149;BME280;66122;47.130;16.844;2023-02-02T10:48:46;100021.41;;;5.75;71.67
77149;BME280;66122;47.130;16.844;2023-02-02T11:08:56;100009.00;;;5.49;72.92
77149;BME280;66122;47.130;16.844;2023-02-02T11:19:21;100009.63;;;5.28;74.19
77149;BME280;66122;47.130;16.844;2023-02-02T11:29:52;100032.13;;;5.38;74.14
77149;BME280;66122;47.130;16.844;2023-02-02T11:40:28;100020.13;;;5.28;72.39
77149;BME280;66122;47.130;16.844;2023-02-02T11:50:31;100019.63;;;5.15;71.75
77149;BME280;66122;47.130;16.844;2023-02-02T12:00:34;100000.38;;;5.15;72.52
77149;BME280;66122;47.130;16.844;2023-02-02T12:10:59;99987.88;;;5.23;71.19
77149;BME280;66122;47.130;16.844;2023-02-02T12:21:05;99974.94;;;5.17;70.65
77149;BME280;66122;47.130;16.844;2023-02-02T12:31:24;99993.19;;;5.21;72.07
77149;BME280;66122;47.130;16.844;2023-02-02T12:51:54;99976.56;;;5.21;69.72
77149;BME280;66122;47.130;16.844;2023-02-02T13:12:22;99972.34;;;5.15;70.32
77149;BME280;66122;47.130;16.844;2023-02-02T13:22:31;99983.72;;;5.16;72.48
77149;BME280;66122;47.130;16.844;2023-02-02T13:32:37;99997.97;;;5.07;72.85
77149;BME280;66122;47.130;16.844;2023-02-02T14:03:42;100031.91;;;4.82;71.76
77149;BME280;66122;47.130;16.844;2023-02-02T14:13:55;100037.38;;;4.73;73.33
77149;BME280;66122;47.130;16.844;2023-02-02T14:34:42;100047.47;;;4.54;71.98
77149;BME280;66122;47.130;16.844;2023-02-02T14:45:05;100065.22;;;4.45;73.67
77149;BME280;66122;47.130;16.844;2023-02-02T14:55:20;100063.81;;;4.30;74.25
77149;BME280;66122;47.130;16.844;2023-02-02T15:15:40;100117.53;;;3.74;81.77
77149;BME280;66122;47.130;16.844;2023-02-02T15:36:11;100127.00;;;3.36;84.02
77149;BME280;66122;47.130;16.844;2023-02-02T15:46:19;100141.16;;;3.25;87.29
77149;BME280;66122;47.130;16.844;2023-02-02T15:56:28;100147.41;;;3.18;87.00
77149;BME280;66122;47.130;16.844;2023-02-02T16:06:32;100154.47;;;3.12;87.83
77149;BME280;66122;47.130;16.844;2023-02-02T16:16:38;100180.50;;;3.23;86.05
77149;BME280;66122;47.130;16.844;2023-02-02T16:26:41;100184.09;;;3.16;87.63
77149;BME280;66122;47.130;16.844;2023-02-02T16:37:06;100209.31;;;3.22;87.88
77149;BME280;66122;47.130;16.844;2023-02-02T16:47:31;100201.75;;;3.03;88.17
77149;BME280;66122;47.130;16.844;2023-02-02T16:57:34;100236.53;;;3.11;88.52
77149;BME280;66122;47.130;16.844;2023-02-02T17:07:39;100249.78;;;3.02;89.40
77149;BME280;66122;47.130;16.844;2023-02-02T17:17:48;100258.66;;;2.92;89.96
77149;BME280;66122;47.130;16.844;2023-02-02T17:27:50;100281.47;;;2.81;90.94
77149;BME280;66122;47.130;16.844;2023-02-02T17:37:55;100290.47;;;2.62;92.47
77149;BME280;66122;47.130;16.844;2023-02-02T17:47:59;100283.75;;;2.44;92.92
77149;BME280;66122;47.130;16.844;2023-02-02T17:58:02;100320.28;;;2.52;92.83
77149;BME280;66122;47.130;16.844;2023-02-02T18:08:05;100315.84;;;2.57;91.49
77149;BME280;66122;47.130;16.844;2023-02-02T18:18:09;100328.91;;;2.57;91.21
77149;BME280;66122;47.130;16.844;2023-02-02T18:28:14;100341.94;;;2.60;90.34
77149;BME280;66122;47.130;16.844;2023-02-02T18:38:19;100351.75;;;2.43;91.32
77149;BME280;66122;47.130;16.844;2023-02-02T18:48:22;100360.88;;;2.05;94.93
77149;BME280;66122;47.130;16.844;2023-02-02T18:58:25;100357.69;;;1.71;98.90
77149;BME280;66122;47.130;16.844;2023-02-02T19:08:29;100352.50;;;1.67;99.66
77149;BME280;66122;47.130;16.844;2023-02-02T19:18:34;100376.22;;;1.44;100.00
77149;BME280;66122;47.130;16.844;2023-02-02T19:28:38;100376.25;;;1.33;100.00
77149;BME280;66122;47.130;16.844;2023-02-02T19:38:40;100398.16;;;1.11;100.00
77149;BME280;66122;47.130;16.844;2023-02-02T19:48:44;100406.94;;;0.92;100.00
77149;BME280;66122;47.130;16.844;2023-02-02T19:58:47;100426.13;;;0.83;100.00
77149;BME280;66122;47.130;16.844;2023-02-02T20:08:51;100446.16;;;0.72;100.00
77149;BME280;66122;47.130;16.844;2023-02-02T20:18:55;100458.34;;;0.52;100.00
77149;BME280;66122;47.130;16.844;2023-02-02T20:29:00;100470.56;;;0.30;100.00
77149;BME280;66122;47.130;16.844;2023-02-02T20:39:18;100488.81;;;0.15;100.00
77149;BME280;66122;47.130;16.844;2023-02-02T20:49:23;100492.28;;;0.17;100.00
77149;BME280;66122;47.130;16.844;2023-02-02T20:59:28;100506.19;;;0.32;99.40
77149;BME280;66122;47.130;16.844;2023-02-02T21:09:31;100519.19;;;0.08;98.15
77149;BME280;66122;47.130;16.844;2023-02-02T21:19:33;100545.22;;;-0.30;100.00
77149;BME280;66122;47.130;16.844;2023-02-02T21:29:36;100559.03;;;-0.42;100.00
77149;BME280;66122;47.130;16.844;2023-02-02T21:39:40;100565.94;;;-0.50;98.69
77149;BME280;66122;47.130;16.844;2023-02-02T21:49:50;100577.22;;;-0.58;98.70
77149;BME280;66122;47.130;16.844;2023-02-02T21:59:55;100579.88;;;-0.40;94.70
77149;BME280;66122;47.130;16.844;2023-02-02T22:09:58;100576.56;;;0.37;90.95
77149;BME280;66122;47.130;16.844;2023-02-02T22:40:31;100617.41;;;0.56;89.66
77149;BME280;66122;47.130;16.844;2023-02-02T22:50:34;100619.97;;;0.12;91.96
77149;BME280;66122;47.130;16.844;2023-02-02T23:00:37;100639.94;;;0.13;93.67
77149;BME280;66122;47.130;16.844;2023-02-02T23:10:39;100630.41;;;0.26;92.51
77149;BME280;66122;47.130;16.844;2023-02-02T23:20:42;100638.22;;;0.29;92.23
77149;BME280;66122;47.130;16.844;2023-02-02T23:30:45;100648.59;;;-0.03;91.25
77149;BME280;66122;47.130;16.844;2023-02-02T23:40:48;100655.50;;;-0.07;90.09
77149;BME280;66122;47.130;16.844;2023-02-02T23:50:51;100667.72;;;0.04;90.74
